Time;durP1;ratioP1;P1;durP2;ratioP2;P2;SDS_P1;SDS_P2;PMS_P1;PMS_P2;Temp;Humidity;BMP_temperature;BMP_pressure;BME280_temperature;BME280_humidity;BME280_pressure;Samples;Min_cycle;Max_cycle;Signal;HPM_P1;HPM_P2
2021/03/02 00:00:23;;;;;;;26.30;16.10;;;;;;;0.17;79.38;98250.80;1698566;83;21110;-79
2021/03/02 00:02:51;;;;;;;28.92;16.77;;;;;;;0.18;79.39;98255.02;1725441;83;21229;-79
2021/03/02 00:05:17;;;;;;;26.75;17.45;;;;;;;0.20;79.45;98248.55;1725448;83;21244;-79
2021/03/02 00:07:43;;;;;;;32.67;18.77;;;;;;;0.18;79.46;98248.63;1725512;83;21268;-79
2021/03/02 00:10:11;;;;;;;25.90;16.25;;;;;;;0.21;79.52;98257.88;1725343;83;21543;-79
2021/03/02 00:12:39;;;;;;;28.73;16.77;;;;;;;0.24;79.51;98255.16;1725320;83;21146;-79
2021/03/02 00:15:07;;;;;;;32.55;19.45;;;;;;;0.28;79.36;98260.05;1725332;83;21118;-79
2021/03/02 00:17:48;;;;;;;32.85;19.20;;;;;;;0.32;79.20;98252.23;1698671;83;21118;-79
2021/03/02 00:20:22;;;;;;;28.67;17.98;;;;;;;0.35;79.29;98253.39;1725529;83;21122;-79
2021/03/02 00:23:07;;;;;;;27.22;16.77;;;;;;;0.38;79.34;98255.34;1725316;83;21278;-79
2021/03/02 00:25:38;;;;;;;24.07;14.98;;;;;;;0.39;79.23;98254.89;1699576;83;21341;-79
2021/03/02 00:28:08;;;;;;;21.97;12.00;;;;;;;0.36;79.25;98261.44;1724721;83;21261;-79
2021/03/02 00:30:35;;;;;;;18.35;10.95;;;;;;;0.36;79.20;98262.72;1698815;83;21146;-79
2021/03/02 00:33:03;;;;;;;16.40;10.93;;;;;;;0.33;79.04;98264.14;1725323;83;21114;-79
2021/03/02 00:35:29;;;;;;;17.60;11.15;;;;;;;0.28;79.08;98257.50;1725287;83;21228;-79
2021/03/02 00:37:55;;;;;;;20.70;12.10;;;;;;;0.28;79.15;98257.95;1725360;83;21264;-79
2021/03/02 00:40:21;;;;;;;19.67;12.53;;;;;;;0.24;79.12;98260.28;1725387;83;21248;-79
2021/03/02 00:42:48;;;;;;;19.37;11.53;;;;;;;0.22;79.15;98253.14;1725358;83;21121;-79
2021/03/02 00:45:15;;;;;;;24.10;14.68;;;;;;;0.19;79.27;98253.28;1725251;83;21111;-79
2021/03/02 00:47:41;;;;;;;27.40;16.57;;;;;;;0.18;79.26;98256.74;1725327;83;21219;-79
2021/03/02 00:50:08;;;;;;;27.45;18.25;;;;;;;0.19;79.31;98255.84;1698645;83;21118;-79
2021/03/02 00:52:34;;;;;;;27.95;16.73;;;;;;;0.21;79.37;98259.16;1725373;83;21256;-79
2021/03/02 00:55:00;;;;;;;28.85;17.30;;;;;;;0.20;79.38;98253.66;1725312;83;21245;-79
2021/03/02 00:57:26;;;;;;;28.23;17.25;;;;;;;0.16;79.34;98254.27;1725264;83;21118;-79
2021/03/02 00:59:52;;;;;;;32.67;18.37;;;;;;;0.14;79.42;98254.75;1725336;83;21118;-79
2021/03/02 01:02:18;;;;;;;27.35;16.10;;;;;;;0.12;79.44;98249.34;1725241;83;21240;-79
2021/03/02 01:04:44;;;;;;;30.35;18.20;;;;;;;0.10;79.51;98251.97;1725306;83;21333;-79
2021/03/02 01:07:10;;;;;;;33.85;22.13;;;;;;;0.07;79.50;98238.06;1725428;83;21138;-79
2021/03/02 01:09:36;;;;;;;32.90;19.45;;;;;;;0.05;79.42;98233.47;1725254;83;21130;-79
2021/03/02 01:12:03;;;;;;;34.30;19.17;;;;;;;0.04;79.46;98238.66;1725249;83;21451;-79
2021/03/02 01:14:29;;;;;;;31.87;18.45;;;;;;;0.02;79.50;98232.34;1725577;83;21131;-79
2021/03/02 01:16:56;;;;;;;35.17;20.43;;;;;;;0.04;79.59;98233.09;1725215;83;21244;-79
2021/03/02 01:19:22;;;;;;;35.05;21.37;;;;;;;0.04;79.61;98227.16;1725257;83;21504;-79
2021/03/02 01:21:49;;;;;;;34.27;20.48;;;;;;;0.05;79.66;98230.09;1725235;83;21388;-79
2021/03/02 01:24:15;;;;;;;34.27;20.23;;;;;;;0.02;79.64;98224.67;1725472;83;21134;-79
2021/03/02 01:26:41;;;;;;;33.38;19.42;;;;;;;0.02;79.57;98221.30;1725482;83;21118;-79
2021/03/02 01:29:08;;;;;;;31.27;20.05;;;;;;;0.02;79.62;98217.46;1698358;83;21376;-79
2021/03/02 01:31:34;;;;;;;33.18;18.45;;;;;;;0.04;79.76;98214.38;1725448;83;21130;-79
2021/03/02 01:33:59;;;;;;;24.20;15.48;;;;;;;0.02;79.76;98211.07;1725270;83;21110;-79
2021/03/02 01:36:25;;;;;;;25.50;16.23;;;;;;;0.01;79.71;98214.08;1725285;83;21114;-79
2021/03/02 01:38:51;;;;;;;25.17;16.35;;;;;;;0.00;79.78;98217.53;1725248;83;21267;-79
2021/03/02 01:41:17;;;;;;;28.47;17.23;;;;;;;-0.01;79.84;98211.56;1725239;83;21114;-79
2021/03/02 01:43:43;;;;;;;24.30;16.10;;;;;;;-0.03;79.82;98214.64;1725384;83;21272;-78
2021/03/02 01:46:10;;;;;;;27.32;16.80;;;;;;;-0.04;79.88;98213.44;1698370;83;21325;-78
2021/03/02 01:48:39;;;;;;;31.40;19.02;;;;;;;-0.03;79.88;98215.09;1725427;83;21468;-78
2021/03/02 01:51:05;;;;;;;28.07;18.87;;;;;;;-0.05;79.84;98210.06;1725301;83;21133;-78
2021/03/02 01:53:31;;;;;;;30.82;18.75;;;;;;;-0.08;79.98;98208.10;1725242;83;21417;-78
2021/03/02 01:55:58;;;;;;;29.18;17.25;;;;;;;-0.09;80.08;98210.28;1725210;83;21110;-78
2021/03/02 01:58:25;;;;;;;28.77;17.55;;;;;;;-0.09;80.01;98206.00;1725272;83;21118;-78
2021/03/02 02:01:07;;;;;;;28.00;17.25;;;;;;;-0.08;79.99;98199.16;1725405;83;21118;-79
2021/03/02 02:03:52;;;;;;;30.82;17.27;;;;;;;-0.07;80.06;98199.08;1725647;83;21106;-79
2021/03/02 02:06:30;;;;;;;32.60;18.82;;;;;;;-0.07;80.11;98196.53;1700963;83;21111;-79
2021/03/02 02:09:16;;;;;;;28.75;18.55;;;;;;;-0.06;80.08;98195.63;1725272;83;21102;-79
2021/03/02 02:12:02;;;;;;;31.95;18.82;;;;;;;-0.03;79.98;98196.75;1723793;83;21122;-79
2021/03/02 02:14:46;;;;;;;33.65;18.60;;;;;;;-0.06;79.91;98196.91;1725248;83;21102;-79
2021/03/02 02:17:22;;;;;;;33.88;19.25;;;;;;;-0.06;80.03;98199.91;1725267;83;21101;-79
2021/03/02 02:20:00;;;;;;;30.35;18.60;;;;;;;-0.06;80.02;98192.25;1725222;83;21467;-79
2021/03/02 02:22:57;;;;;;;30.50;16.73;;;;;;;-0.10;80.09;98196.67;1725225;83;21122;-79
2021/03/02 02:25:48;;;;;;;30.90;18.35;;;;;;;-0.09;80.06;98194.50;1725419;83;21086;-79
2021/03/02 02:28:14;;;;;;;30.02;17.23;;;;;;;-0.10;79.94;98190.73;1725311;83;21237;-79
2021/03/02 02:30:42;;;;;;;26.57;15.60;;;;;;;-0.11;80.01;98188.63;1698469;83;21134;-79
2021/03/02 02:33:08;;;;;;;20.32;12.50;;;;;;;-0.11;80.00;98189.09;1725332;83;21087;-79
2021/03/02 02:35:34;;;;;;;27.82;15.05;;;;;;;-0.11;79.94;98184.80;1697117;83;21134;-79
2021/03/02 02:38:00;;;;;;;26.35;16.90;;;;;;;-0.11;79.95;98175.86;1698434;83;21102;-79
2021/03/02 02:40:27;;;;;;;26.20;15.78;;;;;;;-0.09;80.07;98181.72;1725306;83;21122;-79
2021/03/02 02:42:53;;;;;;;16.35;10.55;;;;;;;-0.05;80.16;98179.39;1725372;83;21083;-79
2021/03/02 02:45:19;;;;;;;12.78;7.60;;;;;;;0.01;80.18;98186.42;1725239;83;21150;-79
2021/03/02 02:47:46;;;;;;;12.55;8.10;;;;;;;0.03;79.94;98183.33;1675584;83;21357;-79
2021/03/02 02:50:13;;;;;;;14.30;9.98;;;;;;;0.05;79.92;98171.30;1725582;83;21098;-79
2021/03/02 02:52:40;;;;;;;15.23;10.00;;;;;;;0.06;79.87;98171.23;1725161;83;21178;-79
2021/03/02 02:55:06;;;;;;;9.53;6.75;;;;;;;0.04;79.86;98171.76;1698786;83;21572;-79
2021/03/02 02:57:36;;;;;;;10.72;6.50;;;;;;;0.06;79.95;98170.41;1725200;83;21137;-79
2021/03/02 03:00:03;;;;;;;8.28;5.65;;;;;;;0.07;79.98;98162.66;1698926;83;21140;-79
2021/03/02 03:02:29;;;;;;;8.55;5.85;;;;;;;0.03;79.98;98166.72;1725209;83;21090;-79
2021/03/02 03:05:04;;;;;;;7.95;5.95;;;;;;;0.04;79.96;98161.53;1725189;83;21268;-79
2021/03/02 03:07:36;;;;;;;9.55;6.15;;;;;;;0.06;80.20;98157.17;1725202;83;21114;-79
2021/03/02 03:10:03;;;;;;;8.58;5.40;;;;;;;0.12;80.54;98161.16;1717635;83;21137;-79
2021/03/02 03:12:29;;;;;;;8.98;5.42;;;;;;;0.19;80.58;98158.70;1698532;83;21138;-79
2021/03/02 03:14:59;;;;;;;12.28;6.87;;;;;;;0.27;80.54;98160.42;1725199;83;21130;-79
2021/03/02 03:17:32;;;;;;;9.60;6.62;;;;;;;0.38;80.47;98160.73;1698529;83;21114;-79
2021/03/02 03:19:58;;;;;;;11.03;6.90;;;;;;;0.49;80.40;98158.94;1725232;83;21285;-79
2021/03/02 03:22:24;;;;;;;9.63;6.58;;;;;;;0.55;80.49;98159.45;1723514;83;21106;-79
2021/03/02 03:24:50;;;;;;;10.20;6.72;;;;;;;0.59;80.41;98155.82;1711824;83;21116;-79
2021/03/02 03:27:16;;;;;;;10.30;6.75;;;;;;;0.65;80.42;98149.59;1711710;83;21131;-79
2021/03/02 03:29:43;;;;;;;12.03;8.60;;;;;;;0.71;80.35;98153.56;1711563;83;21225;-79
2021/03/02 03:32:09;;;;;;;11.30;8.10;;;;;;;0.76;80.28;98153.70;1711823;84;21134;-79
2021/03/02 03:34:35;;;;;;;11.22;7.50;;;;;;;0.81;80.19;98150.89;1711816;84;21147;-79
2021/03/02 03:37:01;;;;;;;10.00;6.70;;;;;;;0.85;80.06;98148.58;1691652;84;21110;-79
2021/03/02 03:39:27;;;;;;;10.40;7.37;;;;;;;0.90;79.92;98151.72;1711806;83;21130;-79
2021/03/02 03:41:53;;;;;;;12.20;7.25;;;;;;;0.97;79.84;98148.37;1711940;83;21114;-79
2021/03/02 03:44:19;;;;;;;9.85;6.67;;;;;;;0.99;79.83;98151.27;1691493;84;21397;-79
2021/03/02 03:46:45;;;;;;;10.90;6.53;;;;;;;0.99;79.82;98146.14;1711779;83;21079;-79
2021/03/02 03:49:11;;;;;;;11.05;7.62;;;;;;;1.02;79.77;98144.70;1711787;83;21245;-79
2021/03/02 03:51:38;;;;;;;10.58;6.80;;;;;;;1.07;79.58;98139.33;1711940;84;21115;-79
2021/03/02 03:54:06;;;;;;;10.18;6.85;;;;;;;1.12;79.45;98142.02;1711752;84;21124;-79
2021/03/02 03:56:32;;;;;;;10.70;7.28;;;;;;;1.17;79.33;98140.52;1712088;84;21126;-79
2021/03/02 03:58:58;;;;;;;9.88;6.67;;;;;;;1.19;79.27;98142.53;1691480;84;21123;-79
2021/03/02 04:01:25;;;;;;;9.48;6.22;;;;;;;1.19;79.11;98137.41;1690184;84;21346;-79
2021/03/02 04:03:51;;;;;;;9.33;6.42;;;;;;;1.23;79.12;98135.52;1655102;84;21135;-79
2021/03/02 04:06:17;;;;;;;10.60;7.55;;;;;;;1.28;78.90;98139.92;1711747;83;21441;-79
2021/03/02 04:08:43;;;;;;;8.10;6.05;;;;;;;1.29;78.81;98139.84;1711878;83;21228;-79
2021/03/02 04:11:09;;;;;;;8.35;5.35;;;;;;;1.30;78.69;98141.95;1711716;84;21114;-79
2021/03/02 04:13:35;;;;;;;6.50;5.12;;;;;;;1.30;78.66;98141.95;1711787;83;21138;-79
2021/03/02 04:16:01;;;;;;;6.97;4.78;;;;;;;1.26;78.39;98135.34;1711744;83;21346;-79
2021/03/02 04:18:27;;;;;;;5.50;4.03;;;;;;;1.27;78.28;98141.66;1711766;84;21143;-79
2021/03/02 04:20:53;;;;;;;7.00;5.15;;;;;;;1.27;78.20;98132.70;1691717;84;21143;-79
2021/03/02 04:23:19;;;;;;;6.67;4.42;;;;;;;1.27;78.19;98137.00;1717124;83;21130;-79
2021/03/02 04:25:45;;;;;;;6.83;4.67;;;;;;;1.26;78.09;98137.91;1725366;83;21154;-79
2021/03/02 04:28:11;;;;;;;6.97;5.28;;;;;;;1.28;78.06;98139.92;1725553;83;21122;-79
2021/03/02 04:30:37;;;;;;;7.78;5.50;;;;;;;1.32;77.79;98140.16;1725278;83;21129;-79
2021/03/02 04:33:04;;;;;;;7.75;4.42;;;;;;;1.34;77.91;98139.63;1725507;83;21252;-79
2021/03/02 04:35:30;;;;;;;7.90;6.12;;;;;;;1.33;77.79;98141.81;1725266;83;21130;-79
2021/03/02 04:37:57;;;;;;;8.20;5.65;;;;;;;1.28;77.78;98140.75;1725332;83;21118;-79
2021/03/02 04:40:23;;;;;;;7.17;5.12;;;;;;;1.27;77.81;98134.44;1725314;83;21138;-79
2021/03/02 04:42:49;;;;;;;8.15;4.90;;;;;;;1.27;77.71;98140.38;1725358;83;21320;-79
2021/03/02 04:45:16;;;;;;;7.15;4.60;;;;;;;1.27;77.57;98137.00;1725356;83;21118;-79
2021/03/02 04:47:44;;;;;;;8.23;5.17;;;;;;;1.24;77.56;98137.98;1725338;83;21137;-79
2021/03/02 04:50:11;;;;;;;6.72;4.62;;;;;;;1.22;77.60;98139.81;1725281;83;21091;-79
2021/03/02 04:52:37;;;;;;;7.65;5.10;;;;;;;1.20;77.64;98140.34;1725470;83;21114;-79
2021/03/02 04:55:05;;;;;;;5.87;4.40;;;;;;;1.22;77.37;98137.70;1725346;83;21138;-79
2021/03/02 04:57:31;;;;;;;6.33;4.25;;;;;;;1.21;77.28;98138.16;1725405;83;21090;-79
2021/03/02 04:59:57;;;;;;;5.62;4.22;;;;;;;1.19;77.23;98145.09;1698181;83;21143;-79
2021/03/02 05:02:23;;;;;;;5.83;4.28;;;;;;;1.17;77.35;98139.23;1725300;83;21098;-79
2021/03/02 05:04:49;;;;;;;5.62;4.62;;;;;;;1.11;77.47;98146.77;1725257;83;21147;-79
2021/03/02 05:07:15;;;;;;;7.35;4.60;;;;;;;1.11;77.47;98143.38;1725250;83;21329;-79
2021/03/02 05:09:41;;;;;;;7.72;5.35;;;;;;;1.06;77.35;98137.22;1725275;83;21245;-79
2021/03/02 05:12:07;;;;;;;7.55;4.60;;;;;;;1.03;77.31;98140.41;1725341;83;21126;-79
2021/03/02 05:14:33;;;;;;;6.10;4.97;;;;;;;0.98;77.30;98144.48;1725268;83;21154;-79
2021/03/02 05:16:59;;;;;;;9.38;5.78;;;;;;;0.95;77.36;98146.36;1725408;83;21118;-79
2021/03/02 05:19:25;;;;;;;9.58;6.22;;;;;;;0.93;77.38;98142.59;1725365;83;21170;-79
2021/03/02 05:21:51;;;;;;;10.63;6.65;;;;;;;0.88;77.25;98147.13;1725342;83;21110;-79
2021/03/02 05:24:17;;;;;;;5.80;4.87;;;;;;;0.81;77.22;98149.19;1725262;83;21138;-79
2021/03/02 05:26:43;;;;;;;8.13;5.42;;;;;;;0.77;77.32;98149.41;1725301;83;21134;-79
2021/03/02 05:29:10;;;;;;;6.85;4.90;;;;;;;0.78;77.46;98147.22;1725305;83;21235;-79
2021/03/02 05:31:36;;;;;;;6.72;5.08;;;;;;;0.81;77.45;98142.80;1725310;83;21126;-79
2021/03/02 05:34:02;;;;;;;6.92;4.78;;;;;;;0.84;77.52;98140.53;1725261;83;21129;-79
2021/03/02 05:36:28;;;;;;;6.30;5.00;;;;;;;0.88;77.41;98143.30;1725354;83;21146;-79
2021/03/02 05:38:54;;;;;;;9.43;6.10;;;;;;;0.92;77.40;98139.66;1725227;83;21423;-79
2021/03/02 05:41:20;;;;;;;7.62;5.55;;;;;;;0.98;77.34;98143.21;1725310;83;21106;-79
2021/03/02 05:43:46;;;;;;;7.12;5.53;;;;;;;1.03;77.32;98146.80;1725406;83;21144;-79
2021/03/02 05:46:12;;;;;;;8.25;5.47;;;;;;;1.06;77.24;98147.92;1725274;83;21429;-79
2021/03/02 05:48:41;;;;;;;7.08;4.92;;;;;;;1.08;77.32;98149.48;1725359;83;21248;-79
2021/03/02 05:51:08;;;;;;;6.75;5.08;;;;;;;1.10;77.29;98155.80;1725306;83;21151;-79
2021/03/02 05:53:39;;;;;;;8.40;5.28;;;;;;;1.13;77.30;98153.91;1725311;83;21173;-79
2021/03/02 05:56:06;;;;;;;6.35;5.22;;;;;;;1.17;77.21;98156.70;1725266;83;21249;-79
2021/03/02 05:58:36;;;;;;;7.72;5.65;;;;;;;1.24;77.09;98160.21;1725294;83;21138;-79
2021/03/02 06:01:03;;;;;;;7.83;5.25;;;;;;;1.26;77.04;98159.67;1725203;83;21261;-80
2021/03/02 06:03:29;;;;;;;10.60;6.85;;;;;;;1.31;76.91;98158.55;1725298;83;21126;-80
2021/03/02 06:05:55;;;;;;;9.15;5.47;;;;;;;1.31;76.91;98160.28;1725190;83;21212;-80
2021/03/02 06:08:21;;;;;;;8.78;5.08;;;;;;;1.32;76.85;98164.03;1725292;83;21090;-79
2021/03/02 06:10:47;;;;;;;6.53;5.25;;;;;;;1.34;76.91;98166.52;1725246;83;21138;-79
2021/03/02 06:13:13;;;;;;;8.33;5.30;;;;;;;1.35;76.88;98166.43;1725237;83;21110;-79
2021/03/02 06:15:56;;;;;;;10.15;5.87;;;;;;;1.37;76.85;98171.47;1698458;83;21086;-79
2021/03/02 06:18:23;;;;;;;7.87;6.05;;;;;;;1.40;76.81;98172.13;1725225;83;21177;-79
2021/03/02 06:20:49;;;;;;;9.25;5.97;;;;;;;1.45;76.84;98171.87;1725489;83;21101;-79
2021/03/02 06:23:27;;;;;;;9.00;5.70;;;;;;;1.52;76.86;98168.55;1723041;83;21142;-79
2021/03/02 06:25:59;;;;;;;9.43;5.85;;;;;;;1.55;76.94;98165.82;1711645;84;21145;-79
2021/03/02 06:28:40;;;;;;;8.93;6.58;;;;;;;1.59;76.85;98160.44;1708617;84;21132;-79
2021/03/02 06:31:07;;;;;;;9.08;6.35;;;;;;;1.65;76.81;98153.72;1711590;84;21572;-79
2021/03/02 06:33:33;;;;;;;9.95;6.60;;;;;;;1.71;76.73;98160.24;1711744;84;21095;-79
2021/03/02 06:36:00;;;;;;;10.00;6.40;;;;;;;1.74;76.93;98155.77;1711920;84;21122;-79
2021/03/02 06:38:33;;;;;;;8.63;5.78;;;;;;;1.81;76.92;98158.84;1711664;83;21178;-79
2021/03/02 06:41:00;;;;;;;8.55;5.72;;;;;;;1.86;76.89;98157.30;1712002;83;21117;-79
2021/03/02 06:43:37;;;;;;;8.90;5.72;;;;;;;1.94;76.77;98162.81;1711777;83;21127;-79
2021/03/02 06:46:09;;;;;;;11.43;6.75;;;;;;;2.02;76.53;98160.22;1710983;84;21261;-79
2021/03/02 06:48:56;;;;;;;;;;;;;;;2.06;76.78;98162.14;1713897;84;21353;-79
2021/03/02 06:51:30;;;;;;;11.10;7.33;;;;;;;2.10;76.46;98158.48;1711700;83;20222;-79
2021/03/02 06:54:13;;;;;;;8.75;5.78;;;;;;;2.15;76.56;98165.49;1711595;83;21404;-79
2021/03/02 06:56:39;;;;;;;10.82;6.37;;;;;;;2.21;76.42;98162.58;1711665;84;21111;-79
2021/03/02 06:59:14;;;;;;;10.68;6.10;;;;;;;2.28;76.14;98166.92;1711947;84;21147;-79
2021/03/02 07:01:44;;;;;;;10.55;6.25;;;;;;;2.33;76.40;98167.02;1711695;83;21103;-79
2021/03/02 07:04:12;;;;;;;12.03;6.83;;;;;;;2.34;76.21;98166.56;1710928;84;21269;-79
2021/03/02 07:06:39;;;;;;;9.73;5.83;;;;;;;2.35;76.28;98169.49;1711677;83;21107;-79
2021/03/02 07:09:06;;;;;;;9.68;6.22;;;;;;;2.35;76.16;98174.16;1711685;84;21139;-79
2021/03/02 07:11:34;;;;;;;9.25;6.30;;;;;;;2.39;76.07;98170.97;1711626;84;21115;-79
2021/03/02 07:14:03;;;;;;;9.40;6.33;;;;;;;2.46;75.90;98168.44;1711741;84;21146;-79
2021/03/02 07:16:29;;;;;;;9.23;5.97;;;;;;;2.56;75.73;98168.26;1711712;84;21118;-79
2021/03/02 07:18:58;;;;;;;9.33;6.33;;;;;;;2.65;75.64;98169.02;1711602;84;21405;-79
2021/03/02 07:21:25;;;;;;;9.73;6.45;;;;;;;2.73;75.72;98167.28;1711666;84;21249;-79
2021/03/02 07:23:53;;;;;;;10.28;7.05;;;;;;;2.80;75.33;98172.44;1711579;83;21264;-79
2021/03/02 07:26:19;;;;;;;9.35;6.25;;;;;;;2.91;75.14;98174.36;1690113;84;21143;-79
2021/03/02 07:28:45;;;;;;;10.50;7.62;;;;;;;3.00;75.07;98168.23;1711628;83;21324;-79
2021/03/02 07:31:11;;;;;;;8.85;6.30;;;;;;;3.10;74.98;98167.25;1711623;83;21103;-79
2021/03/02 07:33:40;;;;;;;10.00;7.12;;;;;;;3.20;74.67;98171.36;1711682;83;21314;-79
2021/03/02 07:36:07;;;;;;;8.35;6.58;;;;;;;3.30;74.49;98167.33;1711660;84;21111;-79
2021/03/02 07:38:33;;;;;;;7.83;5.62;;;;;;;3.37;74.35;98170.34;1711608;84;21347;-79
2021/03/02 07:40:59;;;;;;;9.10;6.42;;;;;;;3.43;74.16;98164.38;1711655;82;21131;-79
2021/03/02 07:43:30;;;;;;;9.55;5.85;;;;;;;3.51;73.81;98166.01;1711624;84;21307;-79
2021/03/02 07:45:57;;;;;;;7.47;5.65;;;;;;;3.58;73.76;98163.45;1711738;84;21310;-80
2021/03/02 07:48:29;;;;;;;10.72;6.10;;;;;;;3.66;73.82;98168.55;1691435;84;21281;-80
2021/03/02 07:51:20;;;;;;;19.48;10.98;;;;;;;3.71;73.72;98169.09;1711230;83;21154;-80
2021/03/02 07:53:48;;;;;;;10.48;6.37;;;;;;;3.78;72.99;98170.38;1711698;84;21159;-80
2021/03/02 07:56:23;;;;;;;6.40;4.62;;;;;;;3.90;72.74;98171.72;1711838;84;21456;-80
2021/03/02 07:59:13;;;;;;;9.08;5.95;;;;;;;4.04;72.75;98167.43;1711609;83;21508;-80
2021/03/02 08:01:39;;;;;;;8.43;5.42;;;;;;;4.15;72.09;98170.16;1711626;84;21238;-80
2021/03/02 08:04:29;;;;;;;10.18;7.12;;;;;;;4.31;71.89;98170.00;1711667;84;21139;-80
2021/03/02 08:06:54;;;;;;;11.22;7.75;;;;;;;4.44;71.57;98172.14;1711248;84;21477;-80
2021/03/02 08:09:29;;;;;;;15.35;10.80;;;;;;;4.57;71.43;98174.75;1711614;83;21338;-80
2021/03/02 08:12:20;;;;;;;24.10;15.93;;;;;;;4.63;71.39;98172.59;1711577;84;21143;-80
2021/03/02 08:14:47;;;;;;;30.95;20.85;;;;;;;4.72;71.97;98171.17;1711716;84;21103;-80
2021/03/02 08:17:21;;;;;;;48.00;31.68;;;;;;;4.79;72.04;98171.94;1711729;84;21273;-80
2021/03/02 08:20:05;;;;;;;34.65;22.50;;;;;;;4.86;72.46;98177.95;1711678;84;21127;-80
2021/03/02 08:22:44;;;;;;;28.32;17.52;;;;;;;4.93;72.32;98176.64;1711915;84;21138;-80
2021/03/02 08:25:13;;;;;;;34.10;23.80;;;;;;;5.01;72.12;98175.64;1722017;83;21253;-80
2021/03/02 08:27:56;;;;;;;26.52;15.75;;;;;;;5.11;71.76;98174.11;1724199;83;21252;-80
2021/03/02 08:30:25;;;;;;;27.52;17.92;;;;;;;5.16;71.90;98168.17;1725226;83;21090;-80
2021/03/02 08:32:53;;;;;;;22.55;14.28;;;;;;;5.26;71.38;98169.20;1725360;83;21114;-80
2021/03/02 08:35:31;;;;;;;26.37;15.83;;;;;;;5.32;71.68;98170.06;1725516;83;21123;-80
2021/03/02 08:38:07;;;;;;;27.17;16.90;;;;;;;5.40;71.37;98170.38;1725350;83;21137;-80
2021/03/02 08:40:40;;;;;;;27.15;18.70;;;;;;;5.49;71.40;98169.36;1725291;83;21416;-80
2021/03/02 08:43:20;;;;;;;20.50;14.30;;;;;;;5.59;70.73;98169.09;1725295;83;21114;-80
2021/03/02 08:45:51;;;;;;;23.83;16.67;;;;;;;5.66;70.12;98158.70;1725335;83;21134;-80
2021/03/02 08:48:25;;;;;;;22.23;14.97;;;;;;;5.75;70.07;98163.22;1725526;83;21421;-80
2021/03/02 08:51:01;;;;;;;22.52;15.50;;;;;;;5.84;70.43;98171.58;1725277;83;21329;-80
2021/03/02 08:53:43;;;;;;;19.85;11.88;;;;;;;5.92;69.91;98167.22;1725325;83;21233;-80
2021/03/02 08:56:20;;;;;;;17.27;11.40;;;;;;;6.01;69.53;98172.53;1725489;83;21523;-80
2021/03/02 08:58:49;;;;;;;18.82;12.58;;;;;;;6.14;68.50;98172.48;1724419;82;21162;-80
2021/03/02 09:01:23;;;;;;;14.15;10.63;;;;;;;6.25;68.65;98177.70;1724554;83;21126;-80
2021/03/02 09:03:52;;;;;;;19.70;12.58;;;;;;;6.35;68.20;98176.58;1725312;83;21123;-80
2021/03/02 09:06:21;;;;;;;23.18;14.07;;;;;;;6.48;68.14;98178.60;1721421;83;21117;-80
2021/03/02 09:09:00;;;;;;;19.55;12.98;;;;;;;6.53;67.73;98182.98;1698499;83;21118;-80
2021/03/02 09:11:38;;;;;;;18.52;13.15;;;;;;;6.60;67.66;98184.64;1725270;83;21229;-80
2021/03/02 09:14:12;;;;;;;20.32;13.80;;;;;;;6.68;67.22;98188.78;1725302;83;21083;-80
2021/03/02 09:16:59;;;;;;;29.35;17.60;;;;;;;6.76;67.24;98186.45;1725244;83;21338;-80
2021/03/02 09:19:29;;;;;;;24.30;17.70;;;;;;;6.83;67.04;98186.36;1725231;83;21296;-80
2021/03/02 09:22:13;;;;;;;29.02;19.70;;;;;;;6.91;67.54;98193.53;1725382;83;21105;-80
2021/03/02 09:24:47;;;;;;;34.20;20.17;;;;;;;6.97;66.44;98198.70;1719439;83;21246;-80
2021/03/02 09:27:17;;;;;;;28.57;18.82;;;;;;;7.01;66.74;98197.08;1711958;83;21318;-80
2021/03/02 09:29:49;;;;;;;25.52;16.80;;;;;;;7.06;66.86;98201.42;1711683;84;21326;-80
2021/03/02 09:32:19;;;;;;;27.40;18.62;;;;;;;7.12;66.68;98206.12;1711437;83;21151;-80
2021/03/02 09:34:46;;;;;;;37.40;22.50;;;;;;;7.20;66.62;98202.98;1711397;84;21412;-80
2021/03/02 09:37:16;;;;;;;31.93;21.97;;;;;;;7.27;66.44;98202.03;1711804;84;21115;-80
2021/03/02 09:39:44;;;;;;;34.65;22.67;;;;;;;7.32;66.51;98194.73;1711635;83;21179;-80
2021/03/02 09:42:27;;;;;;;32.53;22.65;;;;;;;7.38;66.29;98199.46;1691634;84;21261;-80
2021/03/02 09:44:55;;;;;;;37.03;26.37;;;;;;;7.40;66.37;98197.58;1711720;84;21091;-80
2021/03/02 09:47:32;;;;;;;37.38;22.98;;;;;;;7.47;66.73;98205.20;1711690;84;21251;-80
2021/03/02 09:50:08;;;;;;;33.78;22.37;;;;;;;7.50;66.27;98201.94;1711880;83;21139;-80
2021/03/02 09:52:43;;;;;;;34.35;23.02;;;;;;;7.56;66.77;98205.80;1711506;83;21242;-81
2021/03/02 09:55:27;;;;;;;32.85;23.00;;;;;;;7.60;66.30;98200.73;1710861;84;21527;-81
2021/03/02 10:00:48;;;;;;;32.23;21.50;;;;;;;7.71;64.99;98204.63;1711024;83;21556;-80
2021/03/02 10:03:23;;;;;;;30.80;20.95;;;;;;;7.77;63.79;98209.78;1711054;83;21360;-80
2021/03/02 10:05:57;;;;;;;31.95;21.07;;;;;;;7.82;64.65;98218.85;1710938;83;21281;-80
2021/03/02 10:08:44;;;;;;;33.35;22.52;;;;;;;7.88;65.40;98213.66;1711080;83;21245;-80
2021/03/02 10:11:15;;;;;;;28.42;19.30;;;;;;;7.99;65.59;98209.77;1690632;84;21257;-81
2021/03/02 10:13:52;;;;;;;32.13;22.07;;;;;;;8.10;65.24;98209.72;1711106;83;21095;-81
2021/03/02 10:16:31;;;;;;;41.88;24.10;;;;;;;8.19;64.82;98209.95;1710997;83;21131;-81
2021/03/02 10:19:23;;;;;;;32.20;21.17;;;;;;;8.23;64.40;98213.45;1710829;84;21162;-81
2021/03/02 10:21:56;;;;;;;39.85;25.92;;;;;;;8.28;64.00;98219.09;1690614;84;21265;-80
2021/03/02 10:24:30;;;;;;;42.58;27.35;;;;;;;8.36;65.00;98215.93;1713825;83;21149;-81
2021/03/02 10:26:59;;;;;;;37.90;23.65;;;;;;;8.45;64.70;98221.65;1725200;83;21253;-81
2021/03/02 10:29:26;;;;;;;37.88;25.35;;;;;;;8.48;64.66;98212.84;1725472;83;21286;-81
2021/03/02 10:31:52;;;;;;;41.20;24.18;;;;;;;8.53;65.05;98210.69;1725402;83;21240;-81
2021/03/02 10:34:19;;;;;;;34.23;23.40;;;;;;;8.59;65.16;98211.47;1725237;83;21137;-81
2021/03/02 10:36:45;;;;;;;38.02;24.30;;;;;;;8.64;64.81;98209.35;1725317;83;21118;-81
2021/03/02 10:39:15;;;;;;;35.20;22.55;;;;;;;8.68;64.82;98205.08;1698515;83;21383;-81
2021/03/02 10:41:42;;;;;;;37.30;22.32;;;;;;;8.69;64.58;98205.42;1725477;83;21090;-81
2021/03/02 10:44:09;;;;;;;31.50;20.92;;;;;;;8.72;64.36;98198.69;1725217;83;21118;-81
2021/03/02 10:46:35;;;;;;;32.48;21.65;;;;;;;8.71;63.83;98188.45;1725271;83;21264;-81
2021/03/02 10:49:04;;;;;;;35.63;22.77;;;;;;;8.76;64.36;98193.25;1725388;83;21228;-81
2021/03/02 10:51:31;;;;;;;33.78;21.25;;;;;;;8.84;64.24;98189.57;1725412;83;21337;-81
2021/03/02 10:53:57;;;;;;;33.70;22.65;;;;;;;8.94;64.17;98196.91;1725272;83;21248;-81
2021/03/02 10:56:23;;;;;;;31.07;20.45;;;;;;;9.02;63.93;98188.04;1725317;83;21170;-81
2021/03/02 10:58:49;;;;;;;30.27;18.05;;;;;;;9.10;62.88;98191.28;1725195;83;21146;-81
2021/03/02 11:01:16;;;;;;;28.23;16.25;;;;;;;9.22;63.70;98179.88;1725215;83;21086;-81
2021/03/02 11:03:43;;;;;;;25.48;13.90;;;;;;;9.37;63.29;98173.88;1725258;83;21126;-81
2021/03/02 11:06:13;;;;;;;18.20;11.57;;;;;;;9.49;62.13;98168.47;1725399;83;21444;-81
2021/03/02 11:08:41;;;;;;;14.38;9.88;;;;;;;9.59;62.25;98171.08;1697021;83;21083;-81
2021/03/02 11:11:07;;;;;;;15.20;10.00;;;;;;;9.68;61.28;98166.89;1725299;83;21150;-81
2021/03/02 11:13:34;;;;;;;12.43;8.70;;;;;;;9.77;60.72;98162.21;1725391;83;21114;-81
2021/03/02 11:16:00;;;;;;;14.78;9.70;;;;;;;9.91;59.93;98163.10;1725193;83;21125;-81
2021/03/02 11:18:26;;;;;;;12.55;8.15;;;;;;;9.99;59.55;98156.78;1725103;83;21173;-81
2021/03/02 11:20:52;;;;;;;11.80;8.73;;;;;;;10.09;58.55;98153.73;1724299;83;21408;-81
2021/03/02 11:23:18;;;;;;;15.03;9.83;;;;;;;10.14;57.89;98155.91;1724388;83;21137;-81
2021/03/02 11:25:44;;;;;;;14.23;9.63;;;;;;;10.16;57.57;98150.91;1724203;83;21481;-82
2021/03/02 11:28:11;;;;;;;11.35;7.90;;;;;;;10.20;58.38;98150.16;1724412;83;21307;-81
2021/03/02 11:30:38;;;;;;;15.08;7.95;;;;;;;10.24;55.79;98155.45;1697459;83;21892;-81
2021/03/02 11:33:04;;;;;;;12.53;8.23;;;;;;;10.28;53.38;98143.85;1724277;83;21126;-81
2021/03/02 11:35:31;;;;;;;12.88;7.70;;;;;;;10.32;55.67;98142.61;1724440;83;21153;-81
2021/03/02 11:37:58;;;;;;;10.63;6.97;;;;;;;10.36;55.56;98139.25;1724622;83;21412;-81
2021/03/02 11:40:24;;;;;;;9.85;6.83;;;;;;;10.41;55.91;98139.20;1724312;83;21146;-81
2021/03/02 11:42:52;;;;;;;9.00;5.95;;;;;;;10.47;55.75;98132.14;1724481;83;21256;-81
2021/03/02 11:45:22;;;;;;;7.95;5.20;;;;;;;10.53;53.38;98136.78;1724482;83;21158;-81